^^
Station Historical Data
 
Daily Summary for September 24, 2017 Units:  English    Metric   Both
« Previous Day
Next Day »
Daily Weekly Monthly Yearly Custom
  Current: High: Low: Average:
Temperature: 39.8 °F 42.1 °F 38.7 °F 40.5 °F
Dew Point: 38.0 °F 39.7 °F 36.8 °F 38.4 °F
Humidity: 93% 94% 88% 92%
Wind Speed: 0.0mph 2.0mph 0.0mph 0mph
Wind Gust: 1.0mph 3.0mph - -
WindCalm - - WSW
Pressure: 29.90 in 29.90 in 29.83 in -
Precipitation: 0.19 in      
Historical Graphs
 
 
Tabular Data for September 24, 2017
Time Temperature Dew Point Pressure Wind Wind Speed Wind Gust Humidity Rainfall Rate (Hourly) solar Conditions
00:00 41.3 °F 38.0 °F 29.89 in Calm     88% 0.01 in 0.00 W/m2
00:05 41.4 °F 38.1 °F 29.89 in Calm     88% 0.01 in 0.00 W/m2
00:10 41.4 °F 38.1 °F 29.89 in Calm     88% 0.01 in 0.00 W/m2
00:15 41.6 °F 38.6 °F 29.89 in Calm     89% 0.02 in 0.00 W/m2
00:20 41.6 °F 38.6 °F 29.89 in Calm     89% 0.02 in 0.00 W/m2
00:25 41.7 °F 38.7 °F 29.89 in Calm     89% 0.02 in 0.00 W/m2
00:30 41.7 °F 38.7 °F 29.89 in Calm     89% 0.03 in 0.00 W/m2
00:35 41.8 °F 38.8 °F 29.89 in Calm     89% 0.03 in 0.00 W/m2
00:40 41.8 °F 38.8 °F 29.88 in Calm     89% 0.02 in 0.00 W/m2
00:45 41.9 °F 39.2 °F 29.88 in Calm     90% 0.02 in 0.00 W/m2
00:50 41.9 °F 39.2 °F 29.88 in Calm     90% 0.02 in 0.00 W/m2
00:55 41.9 °F 39.2 °F 29.88 in Calm     90% 0.02 in 0.00 W/m2
01:00 41.9 °F 39.2 °F 29.87 in Calm     90% 0.02 in 0.00 W/m2
01:06 41.9 °F 39.2 °F 29.87 in Calm     90% 0.02 in 0.00 W/m2
01:11 41.9 °F 39.2 °F 29.87 in Calm     90% 0.02 in 0.00 W/m2
01:16 41.9 °F 39.2 °F 29.87 in Calm     90% 0.01 in 0.00 W/m2
01:21 42.0 °F 39.3 °F 29.87 in Calm     90% 0.01 in 0.00 W/m2
01:26 42.0 °F 39.3 °F 29.87 in Calm     90% 0.00 in 0.00 W/m2
01:31 42.0 °F 39.3 °F 29.87 in Calm     90% 0.00 in 0.00 W/m2
01:36 42.0 °F 39.3 °F 29.87 in Calm     90% 0.00 in 0.00 W/m2
01:41 42.0 °F 39.3 °F 29.87 in Calm     90% 0.00 in 0.00 W/m2
01:47 42.0 °F 39.6 °F 29.86 in Calm     91% 0.00 in 0.00 W/m2
01:52 42.0 °F 39.6 °F 29.86 in Calm     91% 0.00 in 0.00 W/m2
01:57 42.0 °F 39.6 °F 29.86 in Calm     91% 0.00 in 0.00 W/m2
02:02 42.0 °F 39.6 °F 29.86 in Calm     91% 0.00 in 0.00 W/m2
02:07 42.0 °F 39.6 °F 29.86 in Calm     91% 0.00 in 0.00 W/m2
02:12 42.0 °F 39.6 °F 29.86 in Calm     91% 0.00 in 0.00 W/m2
02:17 42.0 °F 39.6 °F 29.86 in Calm     91% 0.00 in 0.00 W/m2
02:22 42.0 °F 39.6 °F 29.86 in Calm     91% 0.01 in 0.00 W/m2
02:27 42.1 °F 39.7 °F 29.86 in Calm     91% 0.01 in 0.00 W/m2
02:32 42.0 °F 39.6 °F 29.86 in Calm     91% 0.01 in 0.00 W/m2
02:37 42.1 °F 39.7 °F 29.86 in Calm     91% 0.01 in 0.00 W/m2
02:42 42.1 °F 39.7 °F 29.86 in Calm     91% 0.01 in 0.00 W/m2
02:47 42.0 °F 39.6 °F 29.86 in Calm     91% 0.01 in 0.00 W/m2
02:52 42.0 °F 39.6 °F 29.86 in Calm     91% 0.01 in 0.00 W/m2
02:57 42.0 °F 39.6 °F 29.86 in Calm     91% 0.01 in 0.00 W/m2
03:03 42.0 °F 39.6 °F 29.86 in Calm     91% 0.01 in 0.00 W/m2
03:08 42.0 °F 39.6 °F 29.86 in Calm     91% 0.01 in 0.00 W/m2
03:13 42.0 °F 39.6 °F 29.86 in Calm     91% 0.01 in 0.00 W/m2
03:18 42.0 °F 39.6 °F 29.86 in Calm     91% 0.02 in 0.00 W/m2
03:28 41.9 °F 39.5 °F 29.85 in Calm     91% 0.01 in 0.00 W/m2
03:33 41.9 °F 39.5 °F 29.85 in Calm     91% 0.01 in 0.00 W/m2
03:38 41.8 °F 39.4 °F 29.85 in Calm     91% 0.01 in 0.00 W/m2
03:43 41.8 °F 39.4 °F 29.85 in Calm     91% 0.01 in 0.00 W/m2
03:48 41.8 °F 39.4 °F 29.85 in Calm     91% 0.01 in 0.00 W/m2
03:53 41.8 °F 39.4 °F 29.84 in Calm     91% 0.01 in 0.00 W/m2
03:58 41.8 °F 39.4 °F 29.84 in Calm     91% 0.01 in 0.00 W/m2
04:04 41.7 °F 39.3 °F 29.84 in Calm     91% 0.01 in 0.00 W/m2
04:09 41.7 °F 39.3 °F 29.84 in Calm     91% 0.01 in 0.00 W/m2
04:14 41.7 °F 39.3 °F 29.84 in Calm     91% 0.01 in 0.00 W/m2
04:19 41.6 °F 39.2 °F 29.84 in Calm     91% 0.00 in 0.00 W/m2
04:24 41.6 °F 39.2 °F 29.84 in Calm     91% 0.00 in 0.00 W/m2
04:29 41.7 °F 39.3 °F 29.84 in Calm     91% 0.00 in 0.00 W/m2
04:34 41.7 °F 39.3 °F 29.84 in Calm     91% 0.00 in 0.00 W/m2
04:39 41.7 °F 39.3 °F 29.84 in Calm     91% 0.00 in 0.00 W/m2
04:44 39.1 °F 37.0 °F 29.84 in Calm     92% 0.00 in 0.00 W/m2
04:49 39.1 °F 37.0 °F 29.84 in Calm     92% 0.00 in 0.00 W/m2
04:54 39.1 °F 37.2 °F 29.83 in Calm     93% 0.00 in 0.00 W/m2
04:59 39.2 °F 37.3 °F 29.84 in Calm     93% 0.00 in 0.00 W/m2
05:01 39.2 °F 37.3 °F 29.84 in Calm     93% 0.00 in 0.00 W/m2
05:06 39.2 °F 37.3 °F 29.84 in Calm     93% 0.00 in 0.00 W/m2
05:11 39.3 °F 37.5 °F 29.84 in Calm     93% 0.00 in 0.00 W/m2
05:16 39.4 °F 37.5 °F 29.84 in Calm     93% 0.00 in 0.00 W/m2
05:22 39.4 °F 37.5 °F 29.84 in Calm     93% 0.00 in 0.00 W/m2
05:27 39.5 °F 37.7 °F 29.84 in Calm     93% 0.00 in 0.00 W/m2
05:32 39.5 °F 37.7 °F 29.84 in Calm     93% 0.00 in 0.00 W/m2
05:37 39.5 °F 37.7 °F 29.84 in Calm     93% 0.00 in 0.00 W/m2
05:42 39.6 °F 37.8 °F 29.84 in Calm     93% 0.00 in 0.00 W/m2
05:46 39.5 °F 37.7 °F 29.84 in Calm     93% 0.00 in 0.00 W/m2
05:51 39.6 °F 37.8 °F 29.84 in Calm     93% 0.00 in 0.00 W/m2
05:56 39.6 °F 37.8 °F 29.84 in Calm     93% 0.00 in 0.00 W/m2
06:01 39.6 °F 37.8 °F 29.84 in Calm     93% 0.00 in 0.00 W/m2
06:06 39.7 °F 37.8 °F 29.84 in Calm     93% 0.00 in 0.00 W/m2
06:12 39.8 °F 38.0 °F 29.84 in Calm     93% 0.00 in 0.00 W/m2
06:17 39.9 °F 38.0 °F 29.84 in Calm     93% 0.00 in 0.00 W/m2
06:22 40.0 °F 38.1 °F 29.84 in Calm     93% 0.00 in 0.00 W/m2
06:27 40.0 °F 38.1 °F 29.84 in Calm     93% 0.00 in 0.00 W/m2
06:32 39.9 °F 38.0 °F 29.84 in Calm     93% 0.00 in 0.00 W/m2
06:37 39.9 °F 38.0 °F 29.84 in Calm     93% 0.00 in 0.00 W/m2
06:42 40.0 °F 38.1 °F 29.85 in Calm     93% 0.01 in 0.00 W/m2
06:47 40.1 °F 38.2 °F 29.84 in Calm     93% 0.01 in 0.00 W/m2
06:52 40.1 °F 38.2 °F 29.85 in Calm     93% 0.02 in 0.00 W/m2
06:57 40.2 °F 38.3 °F 29.84 in Calm     93% 0.02 in 0.00 W/m2
07:02 40.1 °F 38.2 °F 29.84 in Calm     93% 0.03 in 0.00 W/m2
07:08 40.0 °F 38.1 °F 29.84 in Calm   1.0 mph 93% 0.03 in 0.00 W/m2
07:13 39.9 °F 38.0 °F 29.84 in Calm   1.0 mph 93% 0.03 in 0.00 W/m2
07:18 39.8 °F 38.0 °F 29.84 in Calm     93% 0.03 in 0.00 W/m2
07:19 39.8 °F 38.0 °F 29.84 in Calm     93% 0.03 in 0.00 W/m2
07:24 39.8 °F 38.0 °F 29.84 in Calm     93% 0.03 in 0.00 W/m2
07:29 39.7 °F 37.8 °F 29.84 in Calm     93% 0.03 in 0.00 W/m2
07:34 39.7 °F 37.8 °F 29.84 in Calm     93% 0.03 in 0.00 W/m2
07:39 39.7 °F 37.8 °F 29.84 in Calm     93% 0.03 in 0.00 W/m2
07:44 39.7 °F 37.8 °F 29.84 in Calm     93% 0.03 in 0.00 W/m2
07:49 39.7 °F 37.8 °F 29.85 in Calm     93% 0.03 in 0.00 W/m2
07:54 39.8 °F 38.0 °F 29.85 in Calm     93% 0.02 in 0.00 W/m2
07:59 39.8 °F 38.0 °F 29.85 in Calm     93% 0.02 in 0.00 W/m2
08:04 39.8 °F 38.0 °F 29.85 in Calm     93% 0.01 in 0.00 W/m2
08:10 39.9 °F 38.0 °F 29.85 in Calm     93% 0.01 in 0.00 W/m2
08:15 39.9 °F 38.0 °F 29.85 in Calm     93% 0.01 in 0.00 W/m2
08:20 39.9 °F 38.0 °F 29.85 in Calm     93% 0.02 in 0.00 W/m2
08:25 39.9 °F 38.0 °F 29.85 in Calm     93% 0.02 in 0.00 W/m2
08:27 39.9 °F 38.0 °F 29.85 in Calm     93% 0.02 in 0.00 W/m2
08:32 40.0 °F 38.1 °F 29.85 in Calm     93% 0.02 in 0.00 W/m2
08:37 40.0 °F 38.1 °F 29.85 in Calm     93% 0.02 in 0.00 W/m2
08:43 40.0 °F 38.1 °F 29.85 in Calm     93% 0.01 in 0.00 W/m2
08:48 40.0 °F 38.1 °F 29.85 in Calm   1.0 mph 93% 0.01 in 0.00 W/m2
08:53 39.9 °F 38.0 °F 29.85 in Calm   1.0 mph 93% 0.01 in 0.00 W/m2
08:58 39.9 °F 38.0 °F 29.85 in Calm   2.0 mph 93% 0.01 in 0.00 W/m2
09:03 39.9 °F 38.0 °F 29.85 in Calm   1.0 mph 93% 0.01 in 0.00 W/m2
09:08 40.0 °F 38.1 °F 29.86 in Calm     93% 0.01 in 0.00 W/m2
09:13 40.1 °F 38.2 °F 29.85 in Calm   1.0 mph 93% 0.01 in 0.00 W/m2
09:18 40.1 °F 38.2 °F 29.86 in Calm   1.0 mph 93% 0.01 in 0.00 W/m2
09:23 39.9 °F 38.0 °F 29.86 in Calm   2.0 mph 93% 0.00 in 0.00 W/m2
09:28 39.4 °F 37.3 °F 29.86 in SW 2.0 mph 3.0 mph 92% 0.01 in 0.00 W/m2
09:33 39.0 °F 36.9 °F 29.86 in Calm   3.0 mph 92% 0.01 in 0.00 W/m2
09:38 38.7 °F 36.8 °F 29.86 in Calm   1.0 mph 93% 0.01 in 0.00 W/m2
09:43 38.8 °F 37.0 °F 29.86 in Calm     93% 0.01 in 0.00 W/m2
09:49 38.8 °F 37.0 °F 29.86 in Calm     93% 0.02 in 0.00 W/m2
09:54 38.8 °F 37.0 °F 29.87 in Calm     93% 0.02 in 0.00 W/m2
09:59 38.7 °F 36.8 °F 29.87 in Calm     93% 0.03 in 0.00 W/m2
10:04 38.8 °F 37.0 °F 29.87 in Calm   1.0 mph 93% 0.03 in 0.00 W/m2
10:09 38.7 °F 36.8 °F 29.87 in Calm   1.0 mph 93% 0.04 in 0.00 W/m2
10:14 38.9 °F 37.0 °F 29.87 in Calm     93% 0.04 in 0.00 W/m2
10:19 39.1 °F 37.5 °F 29.87 in Calm     94% 0.05 in 0.00 W/m2
10:24 39.3 °F 37.7 °F 29.87 in Calm     94% 0.05 in 0.00 W/m2
10:29 39.4 °F 37.8 °F 29.88 in Calm   2.0 mph 94% 0.04 in 0.00 W/m2
10:34 39.4 °F 37.5 °F 29.88 in Calm   2.0 mph 93% 0.05 in 0.00 W/m2
10:40 39.4 °F 37.5 °F 29.88 in Calm   2.0 mph 93% 0.05 in 0.00 W/m2
10:45 39.5 °F 37.7 °F 29.88 in Calm     93% 0.05 in 0.00 W/m2
10:50 39.5 °F 37.7 °F 29.88 in Calm     93% 0.05 in 0.00 W/m2
10:55 39.6 °F 37.8 °F 29.88 in Calm     93% 0.05 in 0.00 W/m2
11:00 39.7 °F 37.8 °F 29.88 in Calm     93% 0.05 in 0.00 W/m2
11:05 39.8 °F 38.0 °F 29.89 in Calm     93% 0.05 in 0.00 W/m2
11:10 40.0 °F 38.1 °F 29.89 in Calm     93% 0.05 in 0.00 W/m2
11:15 40.1 °F 38.5 °F 29.89 in Calm   2.0 mph 94% 0.05 in 0.00 W/m2
11:20 40.1 °F 38.2 °F 29.89 in Calm   2.0 mph 93% 0.04 in 0.00 W/m2
11:25 40.0 °F 38.1 °F 29.90 in Calm   2.0 mph 93% 0.05 in 0.00 W/m2
11:30 39.9 °F 38.0 °F 29.90 in Calm   2.0 mph 93% 0.05 in 0.00 W/m2
11:35 39.8 °F 38.0 °F 29.90 in Calm   1.0 mph 93% 0.04 in 0.00 W/m2
Chelsea Cove, Bountiful, UT
Compliments of Weather Underground - 1.25 mb